createdAt,value
2019-03-10T00:02:11.735Z,1.32
2019-03-10T00:04:42.102Z,1.20
2019-03-10T00:07:12.286Z,1.20
2019-03-10T00:09:42.703Z,1.32
2019-03-10T00:12:12.947Z,1.30
2019-03-10T00:17:20.592Z,1.40
2019-03-10T00:19:50.890Z,1.55
2019-03-10T00:22:21.197Z,1.75
2019-03-10T00:24:51.504Z,1.77
2019-03-10T00:27:22.449Z,1.75
2019-03-10T00:29:52.702Z,1.70
2019-03-10T00:32:23.044Z,1.67
2019-03-10T00:34:53.327Z,1.80
2019-03-10T00:37:23.920Z,1.60
2019-03-10T00:40:16.876Z,1.50
2019-03-10T00:43:15.874Z,1.82
2019-03-10T00:45:57.819Z,2.02
2019-03-10T00:49:04.449Z,2.20
2019-03-10T00:51:49.493Z,1.55
2019-03-10T00:54:19.745Z,1.80
2019-03-10T00:56:50.695Z,1.70
2019-03-10T00:59:21.289Z,1.70
2019-03-10T01:01:51.498Z,1.60
2019-03-10T01:04:21.875Z,2.15
2019-03-10T01:06:53.222Z,1.77
2019-03-10T01:09:23.482Z,1.80
2019-03-10T01:11:53.689Z,1.47
2019-03-10T01:14:24.006Z,1.90
2019-03-10T01:16:54.920Z,1.98
2019-03-10T01:19:25.617Z,2.00
2019-03-10T01:21:56.918Z,1.75
2019-03-10T01:24:27.199Z,2.15
2019-03-10T01:26:57.492Z,1.90
2019-03-10T01:29:27.764Z,1.75
2019-03-10T01:32:22.427Z,2.10
2019-03-10T01:35:05.079Z,1.82
2019-03-10T01:37:35.400Z,1.95
2019-03-10T01:40:07.203Z,1.92
2019-03-10T01:42:37.536Z,1.70
2019-03-10T01:45:11.152Z,1.85
2019-03-10T01:50:13.831Z,2.37
2019-03-10T01:52:44.172Z,2.30
2019-03-10T01:55:14.457Z,2.37
2019-03-10T01:57:44.826Z,2.58
2019-03-10T02:00:18.093Z,2.42
2019-03-10T02:02:48.431Z,2.55
2019-03-10T02:05:18.812Z,2.35
2019-03-10T02:07:49.157Z,2.05
2019-03-10T02:10:19.439Z,2.33
2019-03-10T02:12:49.877Z,2.22
2019-03-10T02:15:20.093Z,2.37
2019-03-10T02:17:57.043Z,2.60
2019-03-10T02:20:28.444Z,3.00
2019-03-10T02:22:58.688Z,2.70
2019-03-10T02:25:28.970Z,2.40
2019-03-10T02:27:59.216Z,2.58
2019-03-10T02:30:29.503Z,2.00
2019-03-10T02:33:00.089Z,2.00
2019-03-10T02:35:30.553Z,2.85
2019-03-10T02:38:00.877Z,2.45
2019-03-10T02:40:31.216Z,2.30
2019-03-10T02:43:01.590Z,2.58
2019-03-10T02:45:32.034Z,2.50
2019-03-10T02:48:02.304Z,2.20
2019-03-10T02:50:32.537Z,2.10
2019-03-10T02:53:02.782Z,2.40
2019-03-10T02:55:33.313Z,2.25
2019-03-10T02:58:03.503Z,1.80
2019-03-10T03:00:33.716Z,2.25
2019-03-10T03:03:03.905Z,2.12
2019-03-10T03:05:34.605Z,1.92
2019-03-10T03:08:04.854Z,2.08
2019-03-10T03:10:35.852Z,2.05
2019-03-10T03:13:07.228Z,2.52
2019-03-10T03:15:37.759Z,2.40
2019-03-10T03:18:08.605Z,2.58
2019-03-10T03:20:38.873Z,2.37
2019-03-10T03:23:09.120Z,1.92
2019-03-10T03:25:39.818Z,2.30
2019-03-10T03:28:10.341Z,2.15
2019-03-10T03:30:40.684Z,2.42
2019-03-10T03:33:10.939Z,2.72
2019-03-10T03:35:59.552Z,2.35
2019-03-10T03:38:32.742Z,2.33
2019-03-10T03:41:18.004Z,2.30
2019-03-10T03:43:49.180Z,2.37
2019-03-10T03:46:20.058Z,3.70
2019-03-10T03:48:50.536Z,4.25
2019-03-10T03:51:20.811Z,3.33
2019-03-10T03:53:51.108Z,2.25
2019-03-10T03:56:21.425Z,2.37
2019-03-10T03:58:52.105Z,2.17
2019-03-10T04:01:24.005Z,1.70
2019-03-10T04:03:54.216Z,2.10
2019-03-10T04:06:24.455Z,1.80
2019-03-10T04:08:54.735Z,1.65
2019-03-10T04:11:24.987Z,1.60
2019-03-10T04:13:55.275Z,1.52
2019-03-10T04:16:26.489Z,1.72
2019-03-10T04:18:57.472Z,1.50
2019-03-10T04:21:27.807Z,1.60
2019-03-10T04:23:58.084Z,1.65
2019-03-10T04:26:29.039Z,1.40
2019-03-10T04:28:59.328Z,1.52
2019-03-10T04:31:29.634Z,1.82
2019-03-10T04:33:59.944Z,1.40
2019-03-10T04:36:30.666Z,1.35
2019-03-10T04:39:01.008Z,1.62
2019-03-10T04:41:32.830Z,1.27
2019-03-10T04:44:03.036Z,1.67
2019-03-10T04:46:33.744Z,1.30
2019-03-10T04:49:04.010Z,1.80
2019-03-10T04:51:34.855Z,1.70
2019-03-10T04:54:05.039Z,1.52
2019-03-10T04:56:37.250Z,2.00
2019-03-10T04:59:07.493Z,1.55
2019-03-10T05:01:37.838Z,2.35
2019-03-10T05:04:08.153Z,1.45
2019-03-10T05:06:38.365Z,2.02
2019-03-10T05:09:10.278Z,2.30
2019-03-10T05:11:40.691Z,2.10
2019-03-10T05:14:10.997Z,1.70
2019-03-10T05:16:41.325Z,2.08
2019-03-10T05:19:12.415Z,2.05
2019-03-10T05:21:42.567Z,1.90
2019-03-10T05:24:12.891Z,1.98
2019-03-10T05:26:43.129Z,1.92
2019-03-10T05:29:13.459Z,1.77
2019-03-10T05:31:43.855Z,2.10
2019-03-10T05:34:14.101Z,2.00
2019-03-10T05:36:44.357Z,2.00
2019-03-10T05:39:14.699Z,1.72
2019-03-10T05:41:45.003Z,1.45
2019-03-10T05:44:15.774Z,1.70
2019-03-10T05:46:46.011Z,2.05
2019-03-10T05:49:16.335Z,1.60
2019-03-10T05:51:46.591Z,1.85
2019-03-10T05:54:17.334Z,1.52
2019-03-10T05:56:47.495Z,1.72
2019-03-10T05:59:18.192Z,1.85
2019-03-10T06:01:48.455Z,2.50
2019-03-10T06:04:18.745Z,2.67
2019-03-10T06:06:49.110Z,2.47
2019-03-10T06:09:19.569Z,2.50
2019-03-10T06:11:49.848Z,1.98
2019-03-10T06:14:20.391Z,2.30
2019-03-10T06:16:50.643Z,2.37
2019-03-10T06:19:20.928Z,1.80
2019-03-10T06:21:51.224Z,2.33
2019-03-10T06:24:21.852Z,1.95
2019-03-10T06:26:52.297Z,2.00
2019-03-10T06:29:22.527Z,2.10
2019-03-10T06:31:52.744Z,2.45
2019-03-10T06:34:23.028Z,2.42
2019-03-10T06:36:54.359Z,4.17
2019-03-10T06:39:25.381Z,6.22
2019-03-10T06:41:55.565Z,5.08
2019-03-10T06:44:26.033Z,4.00
2019-03-10T06:46:57.306Z,3.30
2019-03-10T06:49:28.636Z,3.02
2019-03-10T06:51:58.918Z,3.42
2019-03-10T06:54:39.172Z,4.33
2019-03-10T06:57:09.808Z,4.15
2019-03-10T06:59:42.748Z,4.40
2019-03-10T07:02:12.969Z,4.50
2019-03-10T07:04:43.259Z,4.35
2019-03-10T07:07:13.488Z,4.78
2019-03-10T07:09:44.585Z,4.95
2019-03-10T07:12:14.913Z,6.50
2019-03-10T07:14:45.796Z,5.12
2019-03-10T07:17:16.620Z,4.40
2019-03-10T07:19:46.955Z,4.28
2019-03-10T07:22:18.258Z,4.05
2019-03-10T07:24:50.374Z,3.90
2019-03-10T07:27:20.656Z,3.80
2019-03-10T07:29:52.587Z,4.10
2019-03-10T07:32:40.828Z,4.87
2019-03-10T07:35:25.057Z,4.20
2019-03-10T07:37:59.792Z,4.47
2019-03-10T07:40:34.571Z,4.30
2019-03-10T07:43:06.532Z,4.72
2019-03-10T07:45:41.941Z,3.80
2019-03-10T07:48:30.113Z,4.10
2019-03-10T07:51:02.544Z,4.83
2019-03-10T07:53:50.542Z,4.83
2019-03-10T07:56:28.835Z,4.10
2019-03-10T07:59:00.718Z,3.67
2019-03-10T08:01:35.257Z,3.72
2019-03-10T08:04:16.036Z,4.30
2019-03-10T08:07:04.168Z,3.87
2019-03-10T08:09:38.767Z,4.30
2019-03-10T08:12:19.757Z,3.95
2019-03-10T08:15:09.407Z,4.12
2019-03-10T08:17:41.424Z,4.15
2019-03-10T08:20:15.778Z,4.30
2019-03-10T08:22:49.637Z,5.30
2019-03-10T08:25:37.986Z,4.55
2019-03-10T08:28:23.031Z,4.35
2019-03-10T08:31:00.940Z,4.00
2019-03-10T08:33:48.975Z,4.30
2019-03-10T08:36:23.752Z,3.50
2019-03-10T08:39:10.861Z,3.83
2019-03-10T08:41:48.619Z,3.65
2019-03-10T08:44:38.907Z,3.50
2019-03-10T08:47:10.731Z,4.05
2019-03-10T08:49:45.433Z,3.67
2019-03-10T08:52:16.560Z,4.08
2019-03-10T08:55:03.841Z,3.92
2019-03-10T08:57:51.861Z,4.37
2019-03-10T09:00:23.770Z,4.03
2019-03-10T09:02:55.693Z,5.17
2019-03-10T09:05:27.692Z,4.97
2019-03-10T09:08:16.086Z,5.28
2019-03-10T09:10:47.984Z,5.60
2019-03-10T09:13:19.873Z,5.60
2019-03-10T09:15:51.780Z,5.87
2019-03-10T09:18:26.649Z,6.30
2019-03-10T09:21:04.465Z,6.78
2019-03-10T09:23:42.441Z,7.97
2019-03-10T09:26:17.298Z,5.92
2019-03-10T09:29:01.210Z,7.33
2019-03-10T09:31:33.601Z,7.67
2019-03-10T09:34:23.771Z,7.53
2019-03-10T09:36:58.392Z,7.67
2019-03-10T09:39:33.691Z,8.93
2019-03-10T09:42:23.692Z,7.15
2019-03-10T09:45:10.425Z,5.20
2019-03-10T09:47:45.237Z,4.12
2019-03-10T09:50:17.249Z,4.70
2019-03-10T09:53:05.614Z,4.75
2019-03-10T09:55:40.278Z,4.85
2019-03-10T09:58:28.643Z,4.97
2019-03-10T10:01:15.968Z,4.20
2019-03-10T10:03:50.634Z,4.12
2019-03-10T10:06:34.181Z,4.60
2019-03-10T10:09:23.424Z,4.25
2019-03-10T10:12:13.784Z,4.70
2019-03-10T10:14:45.197Z,5.58
2019-03-10T10:17:23.013Z,8.98
2019-03-10T10:20:03.551Z,10.00
2019-03-10T10:22:37.962Z,10.05
2019-03-10T10:25:22.503Z,10.58
2019-03-10T10:28:06.304Z,11.35
2019-03-10T10:30:53.533Z,11.15
2019-03-10T10:33:41.975Z,10.13
2019-03-10T10:36:30.692Z,9.48
2019-03-10T10:39:08.504Z,8.93
2019-03-10T10:41:40.699Z,9.15
2019-03-10T10:44:12.733Z,9.58
2019-03-10T10:47:00.937Z,9.48
2019-03-10T10:49:49.977Z,8.68
2019-03-10T10:52:31.054Z,8.90
2019-03-10T10:55:03.023Z,9.30
2019-03-10T10:57:34.875Z,8.65
2019-03-10T11:00:09.716Z,7.90
2019-03-10T11:02:44.617Z,7.65
2019-03-10T11:05:16.520Z,7.12
2019-03-10T11:07:51.308Z,7.83
2019-03-10T11:10:40.277Z,6.80
2019-03-10T11:13:15.337Z,7.65
2019-03-10T11:15:53.762Z,7.28
2019-03-10T11:18:32.208Z,6.97
2019-03-10T11:21:06.015Z,7.08
2019-03-10T11:26:30.057Z,6.30
2019-03-10T11:29:07.593Z,6.62
2019-03-10T11:31:42.912Z,5.90
2019-03-10T11:34:17.637Z,6.05
2019-03-10T11:37:07.542Z,5.37
2019-03-10T11:39:45.476Z,6.35
2019-03-10T11:42:26.333Z,5.53
2019-03-10T11:45:00.942Z,5.90
2019-03-10T11:47:38.582Z,6.00
2019-03-10T11:50:11.262Z,6.08
2019-03-10T11:52:59.762Z,6.03
2019-03-10T11:55:31.652Z,6.30
2019-03-10T11:58:04.095Z,3.87
2019-03-10T12:00:36.543Z,5.85
2019-03-10T12:03:20.443Z,6.35
2019-03-10T12:08:39.508Z,5.87
2019-03-10T12:11:09.820Z,4.53
2019-03-10T12:13:40.211Z,3.85
2019-03-10T12:16:10.668Z,4.83
2019-03-10T12:18:40.971Z,4.50
2019-03-10T12:21:11.288Z,3.98
2019-03-10T12:23:41.524Z,3.70
2019-03-10T12:26:12.232Z,4.40
2019-03-10T12:28:42.561Z,3.90
2019-03-10T12:31:12.950Z,3.55
2019-03-10T12:33:43.214Z,3.40
2019-03-10T12:36:13.506Z,4.55
2019-03-10T12:38:44.983Z,4.60
2019-03-10T12:41:15.328Z,6.12
2019-03-10T12:43:45.546Z,6.97
2019-03-10T12:46:15.814Z,7.10
2019-03-10T12:48:46.114Z,7.30
2019-03-10T12:51:16.393Z,7.00
2019-03-10T12:53:46.691Z,6.37
2019-03-10T12:56:16.999Z,5.62
2019-03-10T12:58:47.612Z,4.75
2019-03-10T13:01:17.764Z,4.72
2019-03-10T13:03:58.386Z,5.53
2019-03-10T13:06:20.179Z,5.70
2019-03-10T13:08:52.026Z,4.97
2019-03-10T13:11:22.306Z,5.00
2019-03-10T13:13:52.602Z,4.85
2019-03-10T13:16:22.951Z,6.70
2019-03-10T13:18:53.247Z,7.78
2019-03-10T13:21:25.914Z,6.58
2019-03-10T13:23:55.430Z,6.53
2019-03-10T13:26:25.697Z,6.70
2019-03-10T13:28:55.996Z,6.78
2019-03-10T13:31:29.048Z,7.60
2019-03-10T13:34:01.550Z,8.63
2019-03-10T13:36:31.831Z,8.30
2019-03-10T13:39:02.279Z,8.00
2019-03-10T13:41:34.072Z,8.63
2019-03-10T13:44:04.374Z,9.05
2019-03-10T13:46:36.329Z,8.35
2019-03-10T13:49:06.682Z,7.90
2019-03-10T13:51:37.283Z,8.80
2019-03-10T13:54:07.743Z,8.28
2019-03-10T13:56:37.994Z,8.65
2019-03-10T13:59:09.013Z,8.50
2019-03-10T14:01:39.286Z,8.20
2019-03-10T14:04:09.984Z,9.80
2019-03-10T14:06:40.291Z,12.07
2019-03-10T14:09:11.114Z,12.58
2019-03-10T14:11:41.369Z,11.05
2019-03-10T14:14:11.719Z,11.10
2019-03-10T14:16:42.617Z,9.40
2019-03-10T14:19:13.065Z,9.33
2019-03-10T14:21:43.318Z,8.45
2019-03-10T14:24:13.600Z,8.98
2019-03-10T14:26:43.872Z,9.63
2019-03-10T14:29:14.203Z,9.30
2019-03-10T14:31:44.736Z,10.25
2019-03-10T14:34:15.073Z,10.40
2019-03-10T14:36:45.463Z,8.53
2019-03-10T14:39:15.809Z,8.05
2019-03-10T14:41:46.080Z,8.03
2019-03-10T14:44:16.598Z,7.00
2019-03-10T14:46:47.896Z,5.90
2019-03-10T14:49:23.241Z,5.87
2019-03-10T14:51:50.429Z,4.97
2019-03-10T14:54:20.862Z,4.72
2019-03-10T14:56:51.529Z,5.20
2019-03-10T14:59:21.957Z,6.10
2019-03-10T15:01:52.689Z,5.53
2019-03-10T15:04:22.981Z,5.20
2019-03-10T15:06:55.309Z,6.17
2019-03-10T15:09:25.834Z,10.65
2019-03-10T15:11:56.105Z,7.97
2019-03-10T15:14:26.488Z,7.12
2019-03-10T15:17:01.633Z,7.87
2019-03-10T15:19:28.702Z,9.08
2019-03-10T15:21:59.131Z,8.88
2019-03-10T15:24:29.796Z,9.28
2019-03-10T15:27:00.101Z,10.30
2019-03-10T15:29:30.424Z,10.05
2019-03-10T15:32:00.793Z,10.82
2019-03-10T15:34:31.115Z,10.08
2019-03-10T15:37:01.419Z,10.13
2019-03-10T15:39:31.704Z,11.20
2019-03-10T15:42:02.063Z,11.70
2019-03-10T15:44:33.202Z,11.35
2019-03-10T15:47:03.501Z,12.58
2019-03-10T15:49:33.804Z,11.18
2019-03-10T15:52:04.408Z,10.68
2019-03-10T15:54:34.716Z,11.65
2019-03-10T15:57:05.036Z,24.10
2019-03-10T15:59:35.333Z,12.33
2019-03-10T16:02:05.799Z,12.95
2019-03-10T16:04:36.024Z,12.63
2019-03-10T16:07:06.328Z,12.98
2019-03-10T16:09:36.613Z,12.55
2019-03-10T16:12:07.164Z,12.63
2019-03-10T16:14:43.837Z,12.60
2019-03-10T16:17:14.283Z,12.05
2019-03-10T16:19:44.630Z,12.18
2019-03-10T16:22:15.516Z,14.07
2019-03-10T16:24:46.123Z,12.23
2019-03-10T16:27:16.429Z,15.03
2019-03-10T16:29:46.820Z,14.90
2019-03-10T16:32:17.139Z,14.20
2019-03-10T16:34:47.777Z,12.18
2019-03-10T16:37:19.087Z,13.25
2019-03-10T16:39:49.380Z,12.78
2019-03-10T16:42:19.702Z,12.18
2019-03-10T16:45:00.729Z,13.35
2019-03-10T16:47:32.469Z,14.95
2019-03-10T16:50:02.742Z,14.30
2019-03-10T16:52:33.034Z,15.95
2019-03-10T16:55:03.498Z,15.78
2019-03-10T16:57:33.754Z,15.95
2019-03-10T17:00:05.307Z,17.07
2019-03-10T17:02:37.168Z,17.70
2019-03-10T17:05:34.384Z,19.62
2019-03-10T17:08:04.706Z,19.60
2019-03-10T17:10:35.044Z,21.33
2019-03-10T17:13:05.345Z,21.65
2019-03-10T17:15:38.488Z,23.05
2019-03-10T17:18:08.739Z,23.40
2019-03-10T17:20:39.072Z,23.62
2019-03-10T17:23:09.385Z,24.82
2019-03-10T17:25:39.856Z,24.40
2019-03-10T17:28:10.288Z,24.72
2019-03-10T17:30:41.006Z,22.82
2019-03-10T17:33:11.351Z,22.15
2019-03-10T17:35:43.649Z,19.70
2019-03-10T17:38:15.080Z,18.07
2019-03-10T17:40:45.421Z,19.57
2019-03-10T17:43:16.736Z,17.77
2019-03-10T17:45:47.489Z,17.60
2019-03-10T17:48:17.929Z,19.40
2019-03-10T17:50:49.367Z,17.02
2019-03-10T17:53:22.641Z,15.03
2019-03-10T17:55:53.017Z,11.97
2019-03-10T17:58:26.296Z,9.93
2019-03-10T18:00:56.632Z,7.78
2019-03-10T18:03:27.448Z,5.78
2019-03-10T18:05:57.781Z,6.37
2019-03-10T18:08:28.666Z,8.33
2019-03-10T18:10:59.099Z,8.20
2019-03-10T18:13:29.715Z,6.80
2019-03-10T18:15:59.967Z,5.20
2019-03-10T18:18:30.279Z,4.17
2019-03-10T18:21:00.553Z,4.03
2019-03-10T18:23:30.889Z,3.55
2019-03-10T18:26:01.133Z,4.05
2019-03-10T18:28:31.407Z,4.03
2019-03-10T18:31:01.591Z,3.50
2019-03-10T18:33:31.922Z,3.40
2019-03-10T18:36:02.179Z,4.62
2019-03-10T18:38:32.472Z,4.95
2019-03-10T18:41:02.658Z,4.78
2019-03-10T18:43:32.963Z,3.77
2019-03-10T18:46:03.133Z,4.28
2019-03-10T18:48:34.038Z,3.52
2019-03-10T18:51:04.210Z,4.50
2019-03-10T18:53:34.517Z,4.78
2019-03-10T18:56:05.807Z,5.03
2019-03-10T18:58:37.133Z,5.40
2019-03-10T19:01:07.443Z,4.80
2019-03-10T19:03:37.718Z,4.20
2019-03-10T19:06:08.116Z,4.50
2019-03-10T19:08:38.415Z,3.60
2019-03-10T19:11:08.691Z,3.67
2019-03-10T19:13:39.021Z,4.45
2019-03-10T19:16:09.209Z,4.83
2019-03-10T19:18:39.519Z,5.15
2019-03-10T19:21:09.792Z,4.62
2019-03-10T19:23:40.136Z,3.72
2019-03-10T19:26:11.368Z,3.87
2019-03-10T19:28:41.945Z,3.37
2019-03-10T19:31:12.249Z,3.17
2019-03-10T19:33:42.580Z,3.58
2019-03-10T19:36:12.749Z,2.90
2019-03-10T19:38:43.497Z,3.40
2019-03-10T19:41:13.783Z,3.60
2019-03-10T19:43:44.174Z,3.30
2019-03-10T19:46:15.529Z,3.45
2019-03-10T19:48:45.924Z,3.80
2019-03-10T19:51:16.170Z,5.87
2019-03-10T19:53:46.705Z,3.62
2019-03-10T19:56:17.397Z,3.42
2019-03-10T19:58:48.260Z,5.42
2019-03-10T20:01:18.538Z,3.95
2019-03-10T20:03:48.810Z,2.87
2019-03-10T20:06:19.074Z,2.72
2019-03-10T20:08:49.404Z,1.98
2019-03-10T20:11:19.670Z,2.20
2019-03-10T20:13:49.936Z,2.10
2019-03-10T20:16:20.327Z,2.30
2019-03-10T20:18:50.580Z,1.80
2019-03-10T20:21:20.891Z,2.10
2019-03-10T20:23:51.164Z,2.98
2019-03-10T20:26:22.598Z,2.67
2019-03-10T20:28:52.985Z,2.83
2019-03-10T20:31:49.780Z,2.75
2019-03-10T20:34:20.211Z,2.05
2019-03-10T20:36:52.254Z,2.40
2019-03-10T20:39:22.407Z,1.90
2019-03-10T20:41:52.788Z,2.75
2019-03-10T20:44:23.143Z,2.10
2019-03-10T20:46:53.482Z,2.20
2019-03-10T20:49:24.886Z,1.95
2019-03-10T20:51:55.223Z,2.20
2019-03-10T20:54:26.005Z,1.57
2019-03-10T20:56:57.463Z,1.40
2019-03-10T20:59:27.793Z,1.50
2019-03-10T21:01:58.107Z,2.10
2019-03-10T21:04:28.446Z,1.62
2019-03-10T21:06:58.764Z,1.90
2019-03-10T21:09:29.080Z,1.98
2019-03-10T21:11:59.438Z,2.02
2019-03-10T21:14:29.768Z,1.72
2019-03-10T21:17:00.094Z,1.50
2019-03-10T21:19:30.446Z,1.90
2019-03-10T21:22:00.754Z,2.25
2019-03-10T21:24:31.020Z,1.82
2019-03-10T21:27:01.285Z,1.70
2019-03-10T21:29:32.812Z,1.52
2019-03-10T21:32:03.114Z,1.67
2019-03-10T21:34:33.466Z,2.45
2019-03-10T21:37:05.120Z,1.70
2019-03-10T21:39:35.406Z,1.82
2019-03-10T21:42:05.722Z,1.70
2019-03-10T21:44:36.040Z,1.20
2019-03-10T21:47:06.520Z,1.45
2019-03-10T21:49:37.897Z,1.45
2019-03-10T21:52:08.170Z,2.00
2019-03-10T21:54:38.484Z,1.20
2019-03-10T21:57:08.665Z,1.22
2019-03-10T21:59:39.090Z,1.75
2019-03-10T22:02:09.540Z,1.05
2019-03-10T22:04:39.993Z,1.42
2019-03-10T22:07:10.297Z,8.63
2019-03-10T22:09:40.703Z,1.20
2019-03-10T22:12:11.001Z,1.40
2019-03-10T22:14:41.337Z,1.30
2019-03-10T22:17:11.905Z,1.50
2019-03-10T22:19:42.191Z,1.50
2019-03-10T22:22:12.443Z,1.32
2019-03-10T22:24:42.761Z,1.35
2019-03-10T22:27:13.013Z,1.62
2019-03-10T22:29:43.333Z,1.52
2019-03-10T22:32:13.598Z,1.52
2019-03-10T22:34:43.885Z,1.90
2019-03-10T22:37:14.143Z,1.70
2019-03-10T22:39:44.467Z,1.60
2019-03-10T22:42:14.743Z,1.20
2019-03-10T22:44:46.628Z,1.22
2019-03-10T22:47:26.255Z,1.20
2019-03-10T22:49:56.546Z,1.12
2019-03-10T22:52:28.695Z,1.00
2019-03-10T22:54:58.839Z,0.90
2019-03-10T22:57:29.029Z,1.22
2019-03-10T22:59:59.371Z,1.20
2019-03-10T23:02:29.881Z,1.55
2019-03-10T23:05:00.388Z,1.40
2019-03-10T23:07:31.737Z,1.20
2019-03-10T23:10:02.076Z,0.93
2019-03-10T23:15:21.571Z,1.15
2019-03-10T23:17:53.398Z,1.10
2019-03-10T23:20:26.505Z,0.88
2019-03-10T23:22:56.816Z,0.82
2019-03-10T23:25:27.169Z,0.85
2019-03-10T23:27:57.502Z,0.80
2019-03-10T23:30:28.962Z,0.60
2019-03-10T23:32:59.187Z,1.10
2019-03-10T23:35:29.603Z,1.45
2019-03-10T23:37:59.907Z,1.10
2019-03-10T23:40:30.228Z,1.10
2019-03-10T23:43:00.517Z,1.40
2019-03-10T23:45:30.758Z,1.37
2019-03-10T23:48:01.052Z,1.70
2019-03-10T23:50:31.252Z,1.75
2019-03-10T23:53:01.820Z,1.40
2019-03-10T23:55:32.033Z,1.72
2019-03-10T23:58:02.283Z,1.40
